Time;durP1;ratioP1;P1;durP2;ratioP2;P2;SDS_P1;SDS_P2;PMS_P1;PMS_P2;Temp;Humidity;BMP_temperature;BMP_pressure;BME280_temperature;BME280_humidity;BME280_pressure;Samples;Min_cycle;Max_cycle;Signal;HPM_P1;HPM_P2
2020/12/26 00:06:41;;;;;;;3.60;1.90;;;;;;;-0.03;80.39;99489.76;493989;1142;65569;-61
2020/12/26 00:16:45;;;;;;;4.77;2.67;;;;;;;-0.06;79.67;99485.53;493659;1144;65126;-60
2020/12/26 00:26:58;;;;;;;3.77;2.57;;;;;;;-0.13;79.70;99483.09;493153;1144;65127;-61
2020/12/26 00:37:02;;;;;;;3.63;3.03;;;;;;;-0.16;80.71;99484.87;492904;1144;65147;-60
2020/12/26 00:47:06;;;;;;;3.60;2.85;;;;;;;-0.14;80.66;99492.59;493157;1144;65191;-60
2020/12/26 00:57:17;;;;;;;9.27;3.37;;;;;;;-0.17;80.52;99513.31;493748;1144;65133;-61
2020/12/26 01:07:20;;;;;;;7.57;2.80;;;;;;;-0.17;80.03;99506.40;493328;1144;65105;-59
2020/12/26 01:17:25;;;;;;;4.45;3.15;;;;;;;-0.13;80.51;99512.35;493759;1144;65208;-60
2020/12/26 01:27:35;;;;;;;4.73;3.37;;;;;;;-0.10;80.90;99507.12;493418;1144;65153;-60
2020/12/26 01:37:39;;;;;;;9.15;4.40;;;;;;;-0.10;80.57;99509.70;493422;1144;65150;-61
2020/12/26 01:47:43;;;;;;;4.00;3.23;;;;;;;-0.15;80.86;99494.30;493536;1144;65145;-62
2020/12/26 01:57:53;;;;;;;6.55;4.30;;;;;;;-0.40;80.51;99493.99;493327;1144;66454;-60
2020/12/26 02:07:58;;;;;;;5.80;4.17;;;;;;;-0.44;81.07;99512.98;493744;1144;65249;-60
2020/12/26 02:18:01;;;;;;;7.70;5.43;;;;;;;-0.37;81.13;99514.56;494113;1144;65120;-61
2020/12/26 02:28:14;;;;;;;5.50;3.73;;;;;;;-0.36;81.68;99512.81;493675;1144;65116;-60
2020/12/26 02:38:19;;;;;;;5.63;4.63;;;;;;;-0.27;80.56;99514.38;493362;1144;65178;-60
2020/12/26 02:48:24;;;;;;;6.50;4.43;;;;;;;-0.22;80.89;99520.28;493141;1144;65137;-60
2020/12/26 02:58:31;;;;;;;6.50;4.50;;;;;;;-0.21;80.92;99524.56;493157;1144;65133;-61
2020/12/26 03:08:35;;;;;;;4.40;4.00;;;;;;;-0.25;80.83;99523.77;496426;1143;65126;-60
2020/12/26 03:18:39;;;;;;;4.70;4.10;;;;;;;-0.36;81.37;99534.32;496838;1144;65348;-60
2020/12/26 03:28:50;;;;;;;4.73;4.00;;;;;;;-0.46;81.97;99533.66;493952;1144;65581;-57
2020/12/26 03:38:54;;;;;;;4.63;4.13;;;;;;;-0.45;82.13;99531.92;493863;1144;65492;-61
2020/12/26 03:48:59;;;;;;;5.97;5.10;;;;;;;-0.41;81.65;99537.88;493943;1144;65404;-61
2020/12/26 03:59:08;;;;;;;5.60;4.43;;;;;;;-0.35;82.54;99541.18;493931;1144;65254;-62
2020/12/26 04:09:14;;;;;;;5.27;4.33;;;;;;;-0.45;82.49;99535.36;493630;1144;65113;-61
2020/12/26 04:19:17;;;;;;;5.87;5.27;;;;;;;-0.41;82.06;99532.72;494162;1144;65253;-62
2020/12/26 04:29:29;;;;;;;5.10;4.35;;;;;;;-0.35;82.74;99545.48;494135;1144;65135;-62
2020/12/26 04:39:33;;;;;;;5.70;4.65;;;;;;;-0.35;82.17;99548.05;493825;1144;65113;-61
2020/12/26 04:49:40;;;;;;;4.93;4.43;;;;;;;-0.32;81.81;99554.02;493772;1144;65488;-60
2020/12/26 04:59:47;;;;;;;4.27;3.87;;;;;;;-0.35;82.83;99548.92;494127;1143;65551;-62
2020/12/26 05:09:52;;;;;;;4.97;3.87;;;;;;;-0.32;82.45;99556.59;494176;1144;65140;-60
2020/12/26 05:19:56;;;;;;;4.33;4.03;;;;;;;-0.31;81.75;99563.45;493959;1143;65731;-61
2020/12/26 05:30:07;;;;;;;5.57;4.90;;;;;;;-0.27;82.40;99563.41;493218;1144;65243;-60
2020/12/26 05:40:10;;;;;;;5.75;4.55;;;;;;;-0.29;82.63;99571.17;493971;1144;65112;-62
2020/12/26 05:50:24;;;;;;;4.93;4.43;;;;;;;-0.31;83.32;99583.27;493690;1143;65124;-60
2020/12/26 06:00:34;;;;;;;6.80;5.00;;;;;;;-0.33;82.99;99590.19;493835;1144;65201;-60
2020/12/26 06:10:40;;;;;;;4.40;4.00;;;;;;;-0.39;83.59;99596.31;493886;1144;65650;-62
2020/12/26 06:20:45;;;;;;;5.60;4.53;;;;;;;-0.47;83.55;99605.92;493819;1143;65194;-60
2020/12/26 06:30:50;;;;;;;6.13;5.00;;;;;;;-0.53;83.37;99611.17;493808;1144;65190;-61
2020/12/26 06:41:02;;;;;;;7.60;5.60;;;;;;;-0.57;83.49;99633.62;494017;1144;65114;-61
2020/12/26 06:51:24;;;;;;;7.57;6.20;;;;;;;-0.62;83.94;99643.15;494094;1144;65315;-61
2020/12/26 07:01:28;;;;;;;5.83;4.90;;;;;;;-0.64;83.73;99650.06;493253;1144;65915;-60
2020/12/26 07:11:32;;;;;;;6.70;6.00;;;;;;;-0.61;84.20;99662.91;493471;1144;65210;-59
2020/12/26 07:21:36;;;;;;;6.27;5.67;;;;;;;-0.59;84.41;99658.56;493946;1144;65517;-62
2020/12/26 07:31:50;;;;;;;7.43;5.50;;;;;;;-0.47;84.79;99675.57;493720;1144;65538;-61
2020/12/26 07:41:55;;;;;;;5.87;5.07;;;;;;;-0.41;84.90;99684.94;493289;1143;65184;-61
2020/12/26 07:52:04;;;;;;;6.60;4.95;;;;;;;-0.35;84.20;99688.26;494314;1144;65134;-60
2020/12/26 08:02:08;;;;;;;7.55;5.40;;;;;;;-0.33;84.26;99704.56;494354;1143;65539;-60
2020/12/26 08:12:12;;;;;;;5.10;4.65;;;;;;;-0.34;83.93;99713.18;494287;1144;65117;-60
2020/12/26 08:22:16;;;;;;;6.37;5.00;;;;;;;-0.24;84.69;99715.61;493722;1144;65517;-61
2020/12/26 08:32:21;;;;;;;6.80;5.70;;;;;;;0.23;84.27;99733.67;493553;1144;65098;-60
2020/12/26 08:42:30;;;;;;;8.83;7.27;;;;;;;0.45;84.15;99734.11;494080;1144;65131;-61
2020/12/26 08:52:34;;;;;;;7.43;6.07;;;;;;;0.77;83.11;99755.00;494393;1144;65209;-61
2020/12/26 09:02:46;;;;;;;6.15;5.65;;;;;;;0.74;83.23;99773.17;494932;1144;65516;-61
2020/12/26 09:13:01;;;;;;;5.90;5.33;;;;;;;0.57;82.73;99782.09;494236;1144;65112;-60
2020/12/26 09:23:13;;;;;;;8.83;6.90;;;;;;;0.44;83.07;99766.00;494409;1143;65207;-61
2020/12/26 09:33:17;;;;;;;7.83;6.20;;;;;;;1.09;83.27;99777.57;494033;1144;65131;-61
2020/12/26 09:43:21;;;;;;;7.87;6.37;;;;;;;1.38;81.97;99770.91;494034;1144;65118;-61
2020/12/26 09:53:25;;;;;;;8.10;5.83;;;;;;;1.49;81.86;99774.98;493831;1144;65149;-60
2020/12/26 10:03:29;;;;;;;6.70;5.30;;;;;;;1.33;80.71;99774.48;493737;1143;65194;-62
2020/12/26 10:13:33;;;;;;;5.45;4.95;;;;;;;1.11;81.15;99775.83;493830;1144;65458;-62
2020/12/26 10:23:37;;;;;;;7.80;6.13;;;;;;;1.06;81.55;99787.16;494010;1144;65130;-61
2020/12/26 10:33:41;;;;;;;7.35;6.10;;;;;;;0.97;81.82;99790.77;494150;1144;65210;-59
2020/12/26 10:43:45;;;;;;;8.35;6.15;;;;;;;1.06;81.90;99797.50;493655;1144;65193;-62
2020/12/26 10:53:49;;;;;;;8.70;5.37;;;;;;;1.13;81.19;99774.94;493981;1144;65216;-61
2020/12/26 11:03:53;;;;;;;8.80;7.70;;;;;;;1.11;81.86;99783.59;493731;1144;65481;-61
2020/12/26 11:13:57;;;;;;;8.23;7.23;;;;;;;0.97;81.39;99783.02;493413;1144;65166;-61
2020/12/26 11:24:01;;;;;;;10.57;7.40;;;;;;;0.82;81.73;99782.46;494395;1144;65120;-62
2020/12/26 11:34:05;;;;;;;10.33;6.20;;;;;;;0.79;81.75;99789.42;493888;1144;65182;-60
2020/12/26 11:44:09;;;;;;;7.63;6.70;;;;;;;0.71;81.51;99789.59;506099;1142;65193;-62
2020/12/26 11:54:13;;;;;;;9.20;6.40;;;;;;;0.81;81.38;99798.86;493511;1144;65941;-61
2020/12/26 12:04:26;;;;;;;9.73;6.87;;;;;;;0.80;81.27;99806.63;484876;1143;10003505;-61
2020/12/26 12:14:30;;;;;;;9.57;6.97;;;;;;;0.78;81.12;99805.81;493066;1144;66022;-60
2020/12/26 12:24:34;;;;;;;8.67;6.63;;;;;;;0.81;81.12;99810.95;493309;1144;65195;-61
2020/12/26 12:34:44;;;;;;;8.20;5.97;;;;;;;0.87;80.68;99817.73;493656;1144;65117;-63
2020/12/26 12:44:48;;;;;;;7.65;5.35;;;;;;;0.72;80.20;99827.47;493262;1144;65248;-60
2020/12/26 12:54:51;;;;;;;8.83;5.70;;;;;;;0.68;80.56;99823.25;493863;1144;65201;-61
2020/12/26 13:05:02;;;;;;;9.33;6.50;;;;;;;0.59;80.07;99816.54;492972;1144;65124;-60
2020/12/26 13:15:10;;;;;;;6.60;5.40;;;;;;;0.48;80.47;99819.31;493424;1143;65193;-61
2020/12/26 13:25:14;;;;;;;8.13;5.63;;;;;;;0.47;81.15;99833.11;493635;1144;65217;-60
2020/12/26 13:35:25;;;;;;;7.40;5.50;;;;;;;0.41;80.22;99847.00;493422;1144;65124;-61
2020/12/26 13:45:29;;;;;;;6.97;5.27;;;;;;;0.40;80.32;99858.22;493696;1144;65552;-61
2020/12/26 13:55:33;;;;;;;14.30;6.77;;;;;;;0.19;80.54;99867.20;493588;1144;65134;-60
2020/12/26 14:05:41;;;;;;;8.03;5.73;;;;;;;0.09;81.32;99881.97;493270;1144;65209;-61
2020/12/26 14:15:48;;;;;;;6.05;5.45;;;;;;;0.12;81.37;99897.44;493038;1144;65209;-62
2020/12/26 14:25:55;;;;;;;9.33;5.33;;;;;;;0.07;81.17;99888.90;492598;1144;65101;-61
2020/12/26 14:36:01;;;;;;;8.80;6.57;;;;;;;0.08;81.49;99892.34;493202;1144;65232;-61
2020/12/26 14:46:08;;;;;;;10.57;7.13;;;;;;;0.05;80.60;99897.54;493066;1144;65543;-61
2020/12/26 14:56:16;;;;;;;13.08;7.78;;;;;;;-0.06;81.20;99900.30;493191;1144;65235;-61
2020/12/26 15:06:27;;;;;;;9.07;6.97;;;;;;;-0.24;80.80;99904.84;493440;1144;65160;-61
2020/12/26 15:16:31;;;;;;;12.93;7.43;;;;;;;-0.27;81.24;99906.64;493690;1144;65467;-61
2020/12/26 15:26:35;;;;;;;15.00;10.40;;;;;;;-0.51;81.96;99906.95;493328;1144;65452;-62
2020/12/26 15:36:41;;;;;;;12.47;9.07;;;;;;;-0.80;82.72;99908.19;492745;1144;65207;-60
2020/12/26 15:46:45;;;;;;;14.53;10.53;;;;;;;-0.85;82.41;99921.13;506907;1143;65116;-62
2020/12/26 15:56:49;;;;;;;16.60;10.50;;;;;;;-1.01;82.11;99911.85;493487;1144;65352;-60
2020/12/26 16:07:00;;;;;;;60.70;28.30;;;;;;;-1.24;82.45;99922.42;493471;1144;65184;-62
2020/12/26 16:17:05;;;;;;;17.80;11.00;;;;;;;-1.53;82.71;99910.66;493888;1144;65143;-61
2020/12/26 16:27:08;;;;;;;69.17;33.03;;;;;;;-1.75;82.72;99903.13;493030;1144;65548;-60
2020/12/26 16:37:20;;;;;;;26.70;15.00;;;;;;;-2.00;83.05;99901.61;492893;1144;65185;-61
2020/12/26 16:47:24;;;;;;;28.73;14.43;;;;;;;-2.18;83.54;99918.04;492979;1144;66566;-61
2020/12/26 16:57:28;;;;;;;20.60;13.50;;;;;;;-2.33;83.47;99912.97;493570;1144;65175;-61
2020/12/26 17:07:39;;;;;;;44.83;21.60;;;;;;;-2.47;83.78;99916.48;493789;1144;65118;-61
2020/12/26 17:17:43;;;;;;;32.30;17.23;;;;;;;-2.58;84.11;99915.67;494309;1144;65136;-61
2020/12/26 17:27:48;;;;;;;30.83;16.90;;;;;;;-2.71;84.25;99920.88;493898;1144;65210;-61
2020/12/26 17:37:55;;;;;;;24.45;15.10;;;;;;;-2.83;84.30;99910.65;494091;1144;65521;-61
2020/12/26 17:47:59;;;;;;;29.57;17.47;;;;;;;-2.90;84.56;99911.52;493471;1144;65194;-63
2020/12/26 17:58:03;;;;;;;29.93;17.37;;;;;;;-2.99;85.18;99913.28;493718;1144;65111;-62
2020/12/26 18:08:15;;;;;;;23.53;12.77;;;;;;;-3.05;84.92;99908.16;493630;1144;65132;-62
2020/12/26 18:18:19;;;;;;;20.07;12.83;;;;;;;-3.07;85.11;99909.87;494142;1144;65127;-62
2020/12/26 18:28:23;;;;;;;21.33;12.03;;;;;;;-3.10;85.29;99908.16;494195;1144;65123;-60
2020/12/26 18:38:36;;;;;;;32.45;18.45;;;;;;;-3.13;85.37;99904.74;492771;1144;65184;-60
2020/12/26 18:48:40;;;;;;;33.27;17.23;;;;;;;-3.15;85.25;99925.31;504323;1143;65108;-58
2020/12/26 18:58:45;;;;;;;23.53;14.90;;;;;;;-3.19;85.21;99925.33;494837;1144;65136;-61
2020/12/26 19:08:50;;;;;;;;;;;;;;;-3.21;85.74;99922.75;493533;1144;65210;-61
2020/12/26 19:18:54;;;;;;;22.67;12.53;;;;;;;-3.25;85.88;99931.33;492564;1144;65545;-61
2020/12/26 19:28:58;;;;;;;20.90;12.33;;;;;;;-3.37;85.80;99921.92;492924;1144;65111;-62
2020/12/26 19:39:14;;;;;;;21.17;13.05;;;;;;;-3.44;85.90;99926.21;492409;1144;65159;-61
2020/12/26 19:49:19;;;;;;;26.00;15.40;;;;;;;-3.50;85.70;99918.53;493561;1144;65128;-61
2020/12/26 19:59:24;;;;;;;36.67;22.70;;;;;;;-3.55;85.42;99915.09;493797;1144;65133;-61
2020/12/26 20:09:33;;;;;;;42.50;24.53;;;;;;;-3.62;86.10;99916.81;493402;1144;66046;-61
2020/12/26 20:19:36;;;;;;;37.70;21.37;;;;;;;-3.68;85.40;99915.11;492902;1144;65153;-60
2020/12/26 20:29:40;;;;;;;40.57;23.43;;;;;;;-3.76;85.54;99905.71;492938;1144;65137;-62
2020/12/26 20:39:53;;;;;;;52.57;28.70;;;;;;;-3.87;86.05;99916.83;492555;1144;65334;-61
2020/12/26 20:49:57;;;;;;;39.87;20.70;;;;;;;-3.92;85.61;99902.28;492265;1144;65136;-62
2020/12/26 21:00:01;;;;;;;27.97;15.83;;;;;;;-3.97;86.28;99905.72;492265;1144;65279;-61
2020/12/26 21:10:11;;;;;;;20.15;11.35;;;;;;;-3.93;85.52;99901.41;493071;1144;65118;-60
2020/12/26 21:20:15;;;;;;;21.50;11.37;;;;;;;-3.95;85.41;99880.04;493284;1144;65120;-62
2020/12/26 21:30:19;;;;;;;14.37;9.50;;;;;;;-3.94;85.24;99885.18;493495;1144;65484;-61
2020/12/26 21:40:28;;;;;;;14.33;9.37;;;;;;;-3.98;85.20;99885.17;493459;1143;65234;-62
2020/12/26 21:50:32;;;;;;;17.50;9.87;;;;;;;-4.05;86.02;99870.63;493695;1144;65207;-61
2020/12/26 22:00:36;;;;;;;18.07;10.67;;;;;;;-4.18;85.89;99870.63;493368;1144;65127;-59
2020/12/26 22:10:50;;;;;;;19.67;11.57;;;;;;;-4.26;86.09;99852.67;493701;1144;65204;-60
2020/12/26 22:20:55;;;;;;;25.93;15.40;;;;;;;-4.33;84.73;99845.81;493492;1144;65108;-61
2020/12/26 22:30:59;;;;;;;39.83;18.77;;;;;;;-4.41;86.07;99827.03;493652;1144;65573;-62
2020/12/26 22:41:14;;;;;;;34.57;18.27;;;;;;;-4.49;85.71;99801.39;493086;1144;65124;-62
2020/12/26 22:51:22;;;;;;;26.40;13.28;;;;;;;-4.54;84.86;99800.52;494074;1144;65212;-61
2020/12/26 23:01:26;;;;;;;32.43;17.67;;;;;;;-4.60;85.28;99775.73;493497;1144;65211;-59
2020/12/26 23:11:30;;;;;;;32.97;17.27;;;;;;;-4.64;85.78;99776.59;493491;1143;65172;-62
2020/12/26 23:21:34;;;;;;;29.65;14.45;;;;;;;-4.68;85.21;99762.91;493754;1144;65542;-60
2020/12/26 23:31:38;;;;;;;36.67;16.17;;;;;;;-4.72;84.54;99745.84;493936;1144;65115;-61
2020/12/26 23:41:48;;;;;;;26.93;13.30;;;;;;;-4.71;84.64;99736.43;493942;1144;65136;-61
2020/12/26 23:51:53;;;;;;;26.57;10.20;;;;;;;-4.71;84.26;99728.73;493112;1142;65535;-60
